Time;durP1;ratioP1;P1;durP2;ratioP2;P2;SDS_P1;SDS_P2;PMS_P1;PMS_P2;Temp;Humidity;BMP_temperature;BMP_pressure;BME280_temperature;BME280_humidity;BME280_pressure;Samples;Min_cycle;Max_cycle;Signal;HPM_P1;HPM_P2
2022/04/15 00:01:57;;;;;;;3.25;2.05;;;;;;;25.03;47.62;101073.34;4198143;28;20082;-64
2022/04/15 00:04:04;;;;;;;4.03;2.17;;;;;;;25.03;47.50;101078.13;4196795;28;20044;-64
2022/04/15 00:06:10;;;;;;;2.08;1.90;;;;;;;25.00;47.73;101068.34;4180994;28;20029;-64
2022/04/15 00:08:13;;;;;;;3.38;2.17;;;;;;;25.02;47.93;101077.28;4181544;28;20045;-64
2022/04/15 00:10:14;;;;;;;2.78;2.42;;;;;;;25.02;47.41;101090.47;4164988;28;20045;-64
2022/04/15 00:12:27;;;;;;;2.80;2.15;;;;;;;25.01;47.88;101098.00;4165284;28;20088;-64
2022/04/15 00:14:31;;;;;;;3.25;2.42;;;;;;;25.02;47.60;101090.47;4165060;28;20041;-64
2022/04/15 00:16:32;;;;;;;2.58;2.00;;;;;;;25.02;47.55;101090.47;4168544;28;20041;-64
2022/04/15 00:18:36;;;;;;;3.50;2.08;;;;;;;25.02;47.67;101087.66;4181901;28;20036;-64
2022/04/15 00:20:38;;;;;;;2.97;2.45;;;;;;;24.87;47.50;101069.13;4182655;28;20071;-64
2022/04/15 00:22:39;;;;;;;2.88;2.10;;;;;;;25.02;47.53;101102.50;4185225;28;20095;-64
2022/04/15 00:24:40;;;;;;;2.45;2.25;;;;;;;25.00;47.29;101124.34;4177300;28;20087;-64
2022/04/15 00:26:42;;;;;;;2.58;2.20;;;;;;;24.95;47.68;101120.81;4173051;28;20040;-64
2022/04/15 00:28:46;;;;;;;3.67;2.15;;;;;;;24.98;47.39;101120.19;4197757;28;20044;-64
2022/04/15 00:30:47;;;;;;;2.72;2.47;;;;;;;24.89;47.51;101116.44;4198928;28;20101;-64
2022/04/15 00:32:49;;;;;;;2.67;2.10;;;;;;;25.01;47.72;101136.38;4199133;28;20037;-62
2022/04/15 00:34:50;;;;;;;2.97;2.33;;;;;;;25.01;47.71;101136.38;4199291;28;20063;-64
2022/04/15 00:36:51;;;;;;;2.88;2.05;;;;;;;25.01;47.49;101150.38;4198257;28;20090;-64
2022/04/15 00:38:53;;;;;;;2.38;2.13;;;;;;;24.99;47.43;101159.09;4192897;28;20041;-64
2022/04/15 00:40:54;;;;;;;2.15;1.95;;;;;;;25.00;47.54;101159.91;4181535;28;20041;-64
2022/04/15 00:42:56;;;;;;;2.20;2.00;;;;;;;25.01;47.31;101164.38;4179948;28;20041;-64
2022/04/15 00:44:59;;;;;;;2.17;1.90;;;;;;;25.00;47.31;101169.13;4182446;28;20464;-64
2022/04/15 00:47:00;;;;;;;2.88;2.65;;;;;;;24.93;47.55;101167.88;4184510;28;20045;-64
2022/04/15 00:49:02;;;;;;;2.05;1.85;;;;;;;24.99;47.56;101177.84;4181060;28;20114;-65
2022/04/15 00:51:04;;;;;;;1.88;1.77;;;;;;;24.95;47.35;101185.19;4180906;28;20443;-66
2022/04/15 00:53:11;;;;;;;2.20;2.00;;;;;;;24.97;47.44;101196.91;4180693;28;20045;-64
2022/04/15 00:55:14;;;;;;;1.80;1.70;;;;;;;25.00;47.17;101211.13;4180908;28;20099;-64
2022/04/15 00:57:22;;;;;;;2.60;1.92;;;;;;;25.00;47.44;101224.31;4193830;28;20102;-63
2022/04/15 00:59:25;;;;;;;2.30;2.10;;;;;;;25.00;47.14;101229.91;4179065;28;20096;-64
2022/04/15 01:01:27;;;;;;;2.05;1.90;;;;;;;24.91;47.34;101221.34;4163185;28;20092;-64
2022/04/15 01:03:29;;;;;;;2.88;2.22;;;;;;;25.00;47.25;101266.31;4163535;28;20091;-64
2022/04/15 01:05:33;;;;;;;3.13;2.10;;;;;;;24.99;47.29;101268.28;4164200;28;20041;-64
2022/04/15 01:07:38;;;;;;;2.40;1.90;;;;;;;24.99;47.21;101254.28;4164760;28;20119;-66
2022/04/15 01:09:43;;;;;;;2.40;2.20;;;;;;;24.99;47.58;101234.69;4193752;28;20465;-64
2022/04/15 01:11:47;;;;;;;2.30;2.00;;;;;;;24.99;47.08;101240.28;4197920;28;20040;-64
2022/04/15 01:13:50;;;;;;;2.20;2.00;;;;;;;25.00;46.97;101246.69;4199405;28;20040;-63
2022/04/15 01:15:56;;;;;;;2.35;2.05;;;;;;;24.98;47.14;101235.00;4167200;28;20107;-64
2022/04/15 01:17:58;;;;;;;2.40;2.20;;;;;;;24.94;47.13;101237.56;4194615;28;20475;-64
2022/04/15 01:20:01;;;;;;;2.78;2.30;;;;;;;24.81;47.13;101213.94;4200736;28;20475;-64
2022/04/15 01:22:10;;;;;;;2.38;1.85;;;;;;;24.97;47.09;101252.91;4200744;28;20044;-64
2022/04/15 01:24:12;;;;;;;3.05;1.90;;;;;;;24.97;46.75;101258.50;4199875;28;20384;-64
2022/04/15 01:26:17;;;;;;;3.38;2.03;;;;;;;24.97;46.98;101269.69;4199923;28;20094;-64
2022/04/15 01:28:19;;;;;;;2.90;1.90;;;;;;;24.96;47.22;101277.25;4184439;28;20057;-64
2022/04/15 01:30:21;;;;;;;2.03;1.80;;;;;;;24.95;47.08;101289.59;4172216;28;20587;-64
2022/04/15 01:32:23;;;;;;;2.95;1.90;;;;;;;24.95;47.30;101286.81;4167134;28;20042;-64
2022/04/15 01:34:24;;;;;;;2.55;1.92;;;;;;;24.96;46.78;101279.22;4166799;28;20469;-64
2022/04/15 01:36:26;;;;;;;5.05;2.00;;;;;;;24.87;46.97;101281.03;4167157;28;20099;-64
2022/04/15 01:38:28;;;;;;;2.17;1.85;;;;;;;24.95;47.08;101300.78;4170346;28;20415;-64
2022/04/15 01:40:29;;;;;;;1.88;1.70;;;;;;;24.93;46.89;101308.69;4200030;28;20541;-64
2022/04/15 01:42:34;;;;;;;2.05;1.60;;;;;;;24.81;46.58;101303.50;4198779;28;20430;-64
2022/04/15 01:44:37;;;;;;;2.22;2.00;;;;;;;24.92;46.94;101311.75;4200055;28;20063;-64
2022/04/15 01:46:38;;;;;;;2.25;2.05;;;;;;;24.94;46.88;101307.53;4200278;28;20464;-64
2022/04/15 01:48:39;;;;;;;2.10;1.90;;;;;;;24.82;46.96;101279.97;4200211;28;20041;-63
2022/04/15 01:50:41;;;;;;;1.60;1.50;;;;;;;24.93;46.64;101300.28;4194892;28;20377;-64
2022/04/15 01:52:51;;;;;;;2.78;1.85;;;;;;;24.84;46.59;101282.47;4183303;28;20092;-63
2022/04/15 01:54:55;;;;;;;2.90;1.63;;;;;;;24.93;46.79;101307.84;4183371;28;20045;-63
2022/04/15 01:56:57;;;;;;;2.00;1.80;;;;;;;24.93;46.67;101313.44;4183281;28;20099;-64
2022/04/15 01:58:59;;;;;;;1.70;1.60;;;;;;;24.94;46.66;101326.31;4183257;28;20606;-63
2022/04/15 02:01:00;;;;;;;1.73;1.63;;;;;;;24.93;46.60;101330.25;4179426;28;20476;-63
2022/04/15 02:03:01;;;;;;;2.22;1.83;;;;;;;24.90;46.62;101320.47;4184715;28;20074;-63
2022/04/15 02:05:03;;;;;;;2.20;1.70;;;;;;;24.90;46.45;101317.66;4199944;28;20491;-63
2022/04/15 02:07:04;;;;;;;1.77;1.60;;;;;;;24.93;46.38;101331.06;4200067;28;20044;-64
2022/04/15 02:09:06;;;;;;;2.10;1.80;;;;;;;24.93;46.54;101347.03;4197283;28;20154;-63
2022/04/15 02:11:07;;;;;;;2.00;1.80;;;;;;;24.91;46.40;101352.91;4184095;28;20424;-63
2022/04/15 02:13:09;;;;;;;3.03;1.98;;;;;;;24.91;46.66;101361.31;4200670;28;20480;-63
2022/04/15 02:15:10;;;;;;;2.83;2.00;;;;;;;24.91;46.45;101371.69;4199709;28;20052;-63
2022/04/15 02:17:11;;;;;;;1.73;1.52;;;;;;;24.91;46.46;101374.47;4199182;28;20041;-63
2022/04/15 02:19:13;;;;;;;2.05;1.67;;;;;;;24.81;46.29;101353.88;4194064;28;20041;-63
2022/04/15 02:21:15;;;;;;;1.55;1.45;;;;;;;24.91;46.31;101363.28;4182970;28;20049;-63
2022/04/15 02:23:16;;;;;;;2.47;1.88;;;;;;;24.91;46.61;101354.88;4183100;28;20549;-63
2022/04/15 02:25:17;;;;;;;2.35;1.52;;;;;;;24.91;46.57;101366.09;4182831;28;20041;-63
2022/04/15 02:27:22;;;;;;;2.47;1.65;;;;;;;24.90;46.30;101356.84;4183063;28;20150;-63
2022/04/15 02:29:24;;;;;;;2.03;1.38;;;;;;;24.91;46.55;101371.69;4182419;28;20041;-63
2022/04/15 02:31:25;;;;;;;1.67;1.58;;;;;;;24.87;46.50;101377.03;4185978;28;20097;-63
2022/04/15 02:33:27;;;;;;;2.08;1.63;;;;;;;24.90;46.04;101392.41;4199627;28;20110;-63
2022/04/15 02:35:31;;;;;;;2.70;1.73;;;;;;;24.86;46.20;101392.16;4198950;28;20078;-63
2022/04/15 02:37:33;;;;;;;1.73;1.50;;;;;;;24.84;46.20;101384.09;4199589;28;20041;-63
2022/04/15 02:39:34;;;;;;;2.30;1.58;;;;;;;24.90;46.30;101398.00;4199059;28;20037;-63
2022/04/15 02:41:38;;;;;;;2.35;1.65;;;;;;;24.90;46.28;101403.63;4183260;28;20049;-63
2022/04/15 02:43:40;;;;;;;1.40;1.30;;;;;;;24.91;46.07;101399.69;4183042;28;20040;-63
2022/04/15 02:45:42;;;;;;;2.85;1.58;;;;;;;24.90;46.05;101389.63;4182462;28;20140;-64
2022/04/15 02:47:44;;;;;;;1.70;1.60;;;;;;;24.89;46.36;101388.78;4182108;28;20045;-63
2022/04/15 02:49:45;;;;;;;1.88;1.60;;;;;;;24.89;46.19;101393.56;4191786;28;20102;-64
2022/04/15 02:51:47;;;;;;;1.50;1.40;;;;;;;24.89;46.10;101401.97;4199256;28;20597;-63
2022/04/15 02:53:48;;;;;;;1.40;1.30;;;;;;;24.89;46.00;101413.16;4199254;28;20361;-64
2022/04/15 02:55:53;;;;;;;2.15;1.65;;;;;;;24.87;45.77;101407.00;4199135;28;20049;-64
2022/04/15 02:57:56;;;;;;;2.05;1.55;;;;;;;24.88;45.90;101397.47;4199274;28;20036;-64
2022/04/15 03:00:00;;;;;;;1.95;1.50;;;;;;;24.88;45.71;101387.13;4198985;28;20036;-64
2022/04/15 03:02:02;;;;;;;1.60;1.43;;;;;;;24.88;45.74;101389.06;4184845;28;20049;-64
2022/04/15 03:04:03;;;;;;;1.52;1.38;;;;;;;24.87;45.73;101404.19;4182247;28;20041;-62
2022/04/15 03:06:05;;;;;;;1.45;1.27;;;;;;;24.88;45.65;101405.84;4182222;28;20041;-62
2022/04/15 03:08:07;;;;;;;1.92;1.40;;;;;;;24.84;45.49;101395.28;4180844;28;20056;-62
2022/04/15 03:10:09;;;;;;;2.33;1.80;;;;;;;24.87;45.83;101399.44;4182053;28;20033;-64
2022/04/15 03:12:10;;;;;;;1.45;1.35;;;;;;;24.85;45.98;101407.31;4182474;28;20040;-65
2022/04/15 03:14:12;;;;;;;1.77;1.40;;;;;;;24.85;45.48;101413.72;4195707;28;20052;-62
2022/04/15 03:16:13;;;;;;;1.88;1.50;;;;;;;24.85;45.59;101410.94;4198628;28;20045;-65
2022/04/15 03:18:14;;;;;;;1.40;1.30;;;;;;;24.84;45.34;101395.28;4199105;28;20045;-65
2022/04/15 03:22:40;;;;;;;2.35;1.75;;;;;;;24.87;45.97;101398.59;4197972;28;20094;-63
2022/04/15 03:24:41;;;;;;;1.33;1.23;;;;;;;24.87;45.59;101393.84;4179412;28;20087;-63
2022/04/15 03:26:43;;;;;;;1.30;1.20;;;;;;;24.83;45.57;101404.81;4181539;28;20045;-63
2022/04/15 03:28:44;;;;;;;1.90;1.38;;;;;;;24.87;45.30;101401.41;4181829;28;20103;-62
2022/04/15 03:30:45;;;;;;;1.38;1.27;;;;;;;24.84;45.61;101400.88;4181844;28;20049;-63
2022/04/15 03:32:48;;;;;;;1.55;1.10;;;;;;;24.85;45.75;101408.13;4181798;28;20040;-63
2022/04/15 03:34:52;;;;;;;1.25;1.15;;;;;;;24.75;45.65;101402.66;4183227;28;20115;-63
2022/04/15 03:36:53;;;;;;;1.30;1.20;;;;;;;24.74;45.71;101409.38;4198622;28;20044;-64
2022/04/15 03:38:55;;;;;;;1.63;1.52;;;;;;;24.84;45.23;101428.88;4198570;28;20033;-62
2022/04/15 03:40:57;;;;;;;1.23;1.10;;;;;;;24.83;45.16;101427.22;4182266;28;20053;-62
2022/04/15 03:43:03;;;;;;;1.90;1.40;;;;;;;24.84;45.39;101444.84;4167054;28;20033;-62
2022/04/15 03:45:18;;;;;;;1.48;1.38;;;;;;;24.74;45.29;101430.91;4198223;28;20106;-65
2022/04/15 03:47:19;;;;;;;1.20;1.10;;;;;;;24.84;45.35;101445.66;4195481;28;20074;-63
2022/04/15 03:49:20;;;;;;;1.42;1.20;;;;;;;24.84;44.88;101445.66;4198420;28;20036;-63
2022/04/15 03:51:31;;;;;;;2.22;1.13;;;;;;;24.83;45.08;101444.00;4198367;28;20078;-63
2022/04/15 03:53:35;;;;;;;1.42;1.33;;;;;;;24.80;45.21;101444.59;4193020;28;20480;-63
2022/04/15 03:55:36;;;;;;;1.40;1.13;;;;;;;24.83;44.96;101460.78;4181502;28;20111;-63
2022/04/15 03:57:38;;;;;;;1.80;1.42;;;;;;;24.83;45.23;101472.00;4181483;28;20029;-63
2022/04/15 03:59:39;;;;;;;1.70;1.20;;;;;;;24.82;45.23;101470.28;4181023;28;20037;-63
2022/04/15 04:01:42;;;;;;;2.03;1.30;;;;;;;24.64;44.99;101454.25;4181731;28;20565;-63
2022/04/15 04:03:43;;;;;;;1.45;1.20;;;;;;;24.82;45.21;101486.25;4181340;28;20045;-63
2022/04/15 04:05:44;;;;;;;1.70;1.33;;;;;;;24.74;45.15;101484.97;4188326;28;20048;-63
2022/04/15 04:07:46;;;;;;;2.88;1.20;;;;;;;24.81;44.75;101491.03;4197514;28;20376;-63
2022/04/15 04:09:47;;;;;;;1.45;1.23;;;;;;;24.80;44.82;101494.97;4198422;28;20042;-63
2022/04/15 04:11:51;;;;;;;0.90;0.90;;;;;;;24.81;44.96;101502.22;4198243;28;20028;-65
2022/04/15 04:13:53;;;;;;;2.30;1.13;;;;;;;24.81;44.84;101513.41;4198253;28;20062;-63
2022/04/15 04:15:54;;;;;;;1.15;1.08;;;;;;;24.73;44.65;101500.06;4196126;28;20270;-63
2022/04/15 04:17:56;;;;;;;1.58;1.40;;;;;;;24.81;44.63;101510.63;4178117;28;20107;-64
2022/04/15 04:19:57;;;;;;;1.65;1.30;;;;;;;24.81;44.87;101507.81;4165166;28;20038;-64
2022/04/15 04:22:01;;;;;;;1.27;1.17;;;;;;;24.81;45.06;101504.19;4164780;28;20084;-64
2022/04/15 04:24:12;;;;;;;1.30;1.20;;;;;;;24.80;44.64;101508.97;4165010;28;20045;-62
2022/04/15 04:26:13;;;;;;;1.58;1.33;;;;;;;24.80;44.55;101516.53;4185383;28;20032;-65
2022/04/15 04:28:15;;;;;;;1.17;1.05;;;;;;;24.73;44.57;101485.22;4197309;28;20103;-63
2022/04/15 04:30:16;;;;;;;1.67;1.35;;;;;;;24.77;44.47;101512.34;4198144;28;20040;-63
2022/04/15 04:32:19;;;;;;;1.48;1.30;;;;;;;24.80;44.77;101527.72;4196669;28;20541;-63
2022/04/15 04:34:20;;;;;;;1.02;0.93;;;;;;;24.79;44.60;101532.50;4197841;28;20125;-63
2022/04/15 04:36:25;;;;;;;1.30;1.20;;;;;;;24.76;44.69;101516.28;4168897;28;20045;-64
2022/04/15 04:38:26;;;;;;;1.50;1.40;;;;;;;24.79;44.26;101523.25;4179048;28;20143;-63
2022/04/15 04:40:28;;;;;;;1.65;1.10;;;;;;;24.78;44.36;101519.59;4197897;28;20037;-63
2022/04/15 04:42:29;;;;;;;1.20;1.10;;;;;;;24.77;44.62;101517.94;4197673;28;20438;-64
2022/04/15 04:44:31;;;;;;;1.92;1.40;;;;;;;24.70;44.59;101499.84;4193295;28;20049;-63
2022/04/15 04:46:34;;;;;;;1.48;1.10;;;;;;;24.77;44.18;101523.53;4181715;28;20041;-64
2022/04/15 04:48:35;;;;;;;2.22;1.30;;;;;;;24.78;44.17;101518.75;4184512;28;20044;-63
2022/04/15 04:50:37;;;;;;;1.08;0.90;;;;;;;24.77;44.27;101529.13;4184546;28;20037;-63
2022/04/15 04:52:39;;;;;;;1.05;0.90;;;;;;;24.72;44.26;101531.16;4179438;28;20030;-64
2022/04/15 04:54:40;;;;;;;1.13;0.98;;;;;;;24.76;44.33;101546.22;4174271;28;20109;-64
2022/04/15 04:56:42;;;;;;;1.17;1.05;;;;;;;24.75;44.54;101553.78;4201205;28;20479;-63
2022/04/15 04:58:43;;;;;;;1.15;1.05;;;;;;;24.75;44.35;101562.19;4200327;28;20040;-63
2022/04/15 05:00:44;;;;;;;1.10;1.00;;;;;;;24.73;44.43;101558.84;4200731;28;20036;-63
2022/04/15 05:02:49;;;;;;;1.20;1.10;;;;;;;24.73;44.44;101556.03;4200901;28;20422;-63
2022/04/15 05:04:50;;;;;;;2.58;1.15;;;;;;;24.74;44.23;101568.91;4200679;28;20048;-64
2022/04/15 05:06:52;;;;;;;1.73;1.20;;;;;;;24.74;44.42;101568.91;4195056;28;20098;-63
2022/04/15 05:08:53;;;;;;;1.50;0.93;;;;;;;24.75;44.18;101575.34;4183767;28;20057;-63
2022/04/15 05:10:54;;;;;;;1.58;1.25;;;;;;;24.58;43.86;101547.75;4184055;28;20036;-63
2022/04/15 05:12:56;;;;;;;1.17;0.88;;;;;;;24.71;44.39;101577.88;4184312;28;20064;-63
2022/04/15 05:14:57;;;;;;;1.02;0.90;;;;;;;24.73;44.31;101586.81;4183726;28;20033;-63
2022/04/15 05:16:58;;;;;;;0.90;0.90;;;;;;;24.73;44.39;101583.19;4184156;28;20033;-64
2022/04/15 05:19:03;;;;;;;1.10;1.05;;;;;;;24.64;44.29;101568.16;4187223;28;20113;-64
2022/04/15 05:21:04;;;;;;;0.98;0.85;;;;;;;24.68;44.00;101570.06;4200719;28;20441;-63
2022/04/15 05:23:06;;;;;;;1.15;1.05;;;;;;;24.72;44.14;101582.34;4200831;28;20040;-64
2022/04/15 05:25:07;;;;;;;1.10;0.93;;;;;;;24.72;43.94;101587.13;4196010;28;20032;-63
2022/04/15 05:27:12;;;;;;;1.10;1.00;;;;;;;24.65;43.99;101565.06;4167702;28;20099;-66
2022/04/15 05:29:13;;;;;;;2.42;1.10;;;;;;;24.72;43.92;101587.13;4167431;28;20033;-64
2022/04/15 05:31:14;;;;;;;0.98;0.88;;;;;;;24.70;43.95;101590.22;4191921;28;20044;-64
2022/04/15 05:33:16;;;;;;;1.27;1.10;;;;;;;24.72;44.09;101599.16;4199879;28;20037;-63
2022/04/15 05:35:17;;;;;;;0.82;0.82;;;;;;;24.72;43.92;101593.56;4200356;28;20032;-63
2022/04/15 05:37:18;;;;;;;1.42;1.05;;;;;;;24.67;43.94;101578.75;4200673;28;20040;-63
2022/04/15 05:39:20;;;;;;;1.02;0.90;;;;;;;24.64;43.76;101573.75;4200359;28;20487;-64
2022/04/15 05:41:21;;;;;;;0.80;0.77;;;;;;;24.71;44.02;101585.44;4187009;28;20037;-64
2022/04/15 05:43:23;;;;;;;1.17;0.95;;;;;;;24.71;44.14;101591.06;4183706;28;20036;-64
2022/04/15 05:45:25;;;;;;;1.60;1.13;;;;;;;24.69;43.72;101605.31;4183410;28;20917;-64
2022/04/15 05:47:26;;;;;;;1.05;1.00;;;;;;;24.69;43.75;101598.88;4183866;28;20098;-64
2022/04/15 05:49:27;;;;;;;1.23;1.00;;;;;;;24.68;43.75;101606.44;4183420;28;20037;-64
2022/04/15 05:51:29;;;;;;;1.10;0.90;;;;;;;24.68;43.81;101617.63;4183156;28;20430;-64
2022/04/15 05:53:30;;;;;;;0.93;0.90;;;;;;;24.69;43.65;101605.31;4196074;28;20041;-64
2022/04/15 05:55:33;;;;;;;0.80;0.80;;;;;;;24.68;43.97;101603.66;4184498;28;20045;-64
2022/04/15 05:57:34;;;;;;;0.77;0.77;;;;;;;24.68;43.86;101609.25;4166286;28;20547;-64
2022/04/15 05:59:36;;;;;;;0.80;0.70;;;;;;;24.68;43.67;101614.84;4166718;28;20042;-64
2022/04/15 06:01:37;;;;;;;1.23;1.13;;;;;;;24.68;43.52;101620.44;4166725;28;20119;-64
2022/04/15 06:03:41;;;;;;;1.35;1.00;;;;;;;24.67;43.45;101607.59;4167014;28;20041;-64
2022/04/15 06:05:42;;;;;;;1.33;1.05;;;;;;;24.68;43.80;101611.22;4198792;28;20098;-64
2022/04/15 06:07:46;;;;;;;0.93;0.80;;;;;;;24.67;43.75;101613.19;4199844;28;20090;-64
2022/04/15 06:09:47;;;;;;;0.88;0.80;;;;;;;24.67;43.67;101618.78;4200063;28;20090;-64
2022/04/15 06:11:52;;;;;;;1.08;0.80;;;;;;;24.67;43.52;101627.16;4199963;28;20036;-64
2022/04/15 06:13:54;;;;;;;;;;;;;;;24.64;43.88;101636.13;4199970;28;20033;-64
2022/04/15 06:15:58;;;;;;;1.15;1.00;;;;;;;24.70;43.35;101629.41;4199628;28;19912;-64
2022/04/15 06:18:01;;;;;;;0.77;0.70;;;;;;;24.69;43.59;101636.09;4183047;28;20041;-64
2022/04/15 06:20:03;;;;;;;0.82;0.80;;;;;;;24.67;43.31;101624.38;4182875;28;20090;-64
2022/04/15 06:22:04;;;;;;;1.05;0.70;;;;;;;24.55;43.31;101599.53;4183300;28;20071;-64
2022/04/15 06:24:08;;;;;;;1.70;1.02;;;;;;;24.63;43.46;101617.69;4183173;28;20045;-64
2022/04/15 06:26:13;;;;;;;0.75;0.75;;;;;;;24.62;43.25;101604.00;4182800;28;20102;-65
2022/04/15 06:28:14;;;;;;;1.52;0.70;;;;;;;24.64;43.60;101613.75;4186009;28;20811;-64
2022/04/15 06:30:16;;;;;;;1.05;0.73;;;;;;;24.61;43.66;101614.34;4199388;28;20036;-64
2022/04/15 06:32:18;;;;;;;0.93;0.65;;;;;;;24.62;43.56;101637.56;4191681;28;20041;-64
2022/04/15 06:34:19;;;;;;;1.35;0.93;;;;;;;24.63;43.42;101647.63;4166709;28;20033;-62
2022/04/15 06:36:21;;;;;;;2.63;0.65;;;;;;;24.61;43.62;101656.31;4164764;28;20386;-63
2022/04/15 06:38:22;;;;;;;1.00;0.90;;;;;;;24.59;43.50;101658.56;4189940;28;20045;-63
2022/04/15 06:40:23;;;;;;;0.75;0.75;;;;;;;24.60;43.36;101663.03;4199744;28;20094;-62
2022/04/15 06:42:27;;;;;;;0.90;0.80;;;;;;;24.61;43.47;101661.91;4199618;28;20048;-64
2022/04/15 06:44:28;;;;;;;1.65;0.75;;;;;;;24.15;43.25;101600.59;4198826;28;20078;-64
2022/04/15 06:46:36;;;;;;;0.70;0.70;;;;;;;24.60;43.35;101679.81;4199529;28;20037;-64
2022/04/15 06:48:38;;;;;;;1.73;0.80;;;;;;;24.59;43.45;101678.16;4185257;28;20553;-64
2022/04/15 06:50:39;;;;;;;0.90;0.70;;;;;;;24.59;43.33;101686.53;4182774;28;20087;-64
2022/04/15 06:52:43;;;;;;;0.90;0.90;;;;;;;24.58;43.01;101685.72;4182443;28;20095;-64
2022/04/15 06:54:47;;;;;;;1.08;0.93;;;;;;;24.59;43.45;101694.94;4182512;28;20110;-64
2022/04/15 06:56:49;;;;;;;1.30;0.80;;;;;;;24.58;43.17;101702.50;4166397;28;20096;-63
2022/04/15 06:58:53;;;;;;;0.60;0.60;;;;;;;24.59;43.27;101711.72;4166042;28;20271;-64
2022/04/15 07:00:54;;;;;;;0.80;0.70;;;;;;;24.58;43.19;101701.66;4192752;28;20399;-64
2022/04/15 07:02:56;;;;;;;0.75;0.73;;;;;;;24.58;43.33;101704.47;4199329;28;20028;-64
2022/04/15 07:04:57;;;;;;;1.05;0.95;;;;;;;24.57;42.92;101702.78;4199008;28;20045;-63
2022/04/15 07:06:59;;;;;;;0.70;0.70;;;;;;;24.56;43.00;101715.13;4199079;28;20454;-63
2022/04/15 07:09:00;;;;;;;0.60;0.60;;;;;;;24.55;43.00;101710.63;4198221;28;20044;-64
2022/04/15 07:11:02;;;;;;;1.33;0.70;;;;;;;24.42;43.22;101702.84;4199445;28;20487;-64
2022/04/15 07:13:05;;;;;;;1.05;0.82;;;;;;;24.55;43.22;101724.63;4182264;28;20044;-64
2022/04/15 07:15:07;;;;;;;0.88;0.75;;;;;;;24.56;42.95;101734.72;4181754;28;20041;-64
2022/04/15 07:17:08;;;;;;;0.95;0.82;;;;;;;24.53;42.94;101724.06;4183275;28;20110;-64
2022/04/15 07:19:10;;;;;;;0.70;0.70;;;;;;;24.40;43.09;101714.34;4182329;28;20033;-63
2022/04/15 07:21:21;;;;;;;0.60;0.60;;;;;;;24.54;42.78;101736.94;4189545;28;20040;-64
2022/04/15 07:23:22;;;;;;;0.75;0.55;;;;;;;24.54;43.02;101742.53;4198842;28;20066;-64
2022/04/15 07:25:25;;;;;;;0.63;0.63;;;;;;;24.53;43.10;101735.28;4198518;28;20090;-64
2022/04/15 07:27:27;;;;;;;0.95;0.80;;;;;;;24.49;42.84;101722.97;4186142;28;20444;-64
2022/04/15 07:29:30;;;;;;;0.80;0.70;;;;;;;24.52;42.95;101730.81;4179107;28;20036;-64
2022/04/15 07:31:32;;;;;;;0.73;0.73;;;;;;;24.51;43.16;101731.91;4198366;28;20040;-64
2022/04/15 07:33:37;;;;;;;0.70;0.70;;;;;;;24.51;43.09;101735.56;4198417;28;20040;-64
2022/04/15 07:35:41;;;;;;;1.15;0.70;;;;;;;24.51;42.69;101737.50;4202591;28;20044;-64
2022/04/15 07:37:50;;;;;;;1.83;0.70;;;;;;;24.50;42.76;101736.66;4198719;28;20086;-64
2022/04/15 07:39:52;;;;;;;0.80;0.80;;;;;;;24.49;42.77;101745.34;4188013;28;20549;-64
2022/04/15 07:41:53;;;;;;;0.70;0.65;;;;;;;24.50;42.76;101739.47;4193534;28;20056;-63
2022/04/15 07:43:54;;;;;;;0.90;0.70;;;;;;;24.49;42.83;101735.00;4197836;28;20071;-64
2022/04/15 07:45:56;;;;;;;0.70;0.70;;;;;;;24.51;43.08;101743.09;4198101;28;20066;-63
2022/04/15 07:47:57;;;;;;;1.00;0.90;;;;;;;24.50;42.90;101741.44;4198260;28;20434;-63
2022/04/15 07:49:58;;;;;;;0.77;0.75;;;;;;;24.49;42.77;101729.41;4198454;28;20044;-63
2022/04/15 07:52:01;;;;;;;1.08;0.80;;;;;;;24.50;43.03;101727.44;4184560;28;20045;-63
2022/04/15 07:54:10;;;;;;;0.60;0.60;;;;;;;24.35;42.38;101715.16;4181948;28;20045;-63
2022/04/15 07:56:11;;;;;;;0.60;0.60;;;;;;;24.48;43.03;101738.09;4177917;28;20048;-63
2022/04/15 07:58:12;;;;;;;1.15;0.52;;;;;;;24.48;42.67;101732.50;4165922;28;20041;-63
2022/04/15 08:00:14;;;;;;;0.80;0.75;;;;;;;24.45;42.54;101738.66;4165557;28;20049;-64
2022/04/15 08:02:18;;;;;;;0.65;0.60;;;;;;;24.47;42.59;101742.03;4165446;28;20041;-64
2022/04/15 08:04:23;;;;;;;2.15;0.90;;;;;;;24.45;42.80;101733.91;4180067;28;20067;-64
2022/04/15 08:06:28;;;;;;;0.60;0.60;;;;;;;24.32;42.76;101717.69;4181439;28;20041;-63
2022/04/15 08:08:30;;;;;;;1.55;0.95;;;;;;;24.35;42.74;101722.72;4181667;28;20107;-64
2022/04/15 08:10:31;;;;;;;1.30;0.70;;;;;;;24.46;42.88;101737.53;4181426;28;20037;-64
2022/04/15 08:12:33;;;;;;;0.50;0.50;;;;;;;24.44;42.61;101748.19;4177340;28;20102;-63
2022/04/15 08:14:37;;;;;;;0.60;0.55;;;;;;;24.30;42.95;101720.78;4168037;28;20100;-64
2022/04/15 08:16:38;;;;;;;0.90;0.80;;;;;;;24.44;42.61;101748.19;4197575;28;20086;-64
2022/04/15 08:18:40;;;;;;;0.80;0.77;;;;;;;24.44;42.69;101743.41;4198229;28;20037;-64
2022/04/15 08:20:43;;;;;;;0.80;0.70;;;;;;;24.37;42.50;101731.69;4197730;28;20032;-64
2022/04/15 08:22:46;;;;;;;0.68;0.68;;;;;;;24.40;42.80;101744.28;4197843;28;20110;-64
2022/04/15 08:24:48;;;;;;;1.70;0.80;;;;;;;24.42;42.55;101753.19;4197861;28;20045;-64
2022/04/15 08:26:49;;;;;;;1.00;0.70;;;;;;;24.41;42.80;101754.34;4192822;28;20033;-64
2022/04/15 08:28:51;;;;;;;0.95;0.75;;;;;;;24.42;42.49;101756.00;4185694;28;20851;-64
2022/04/15 08:30:52;;;;;;;1.15;0.50;;;;;;;24.41;42.52;101760.75;4178455;28;20037;-63
2022/04/15 08:32:56;;;;;;;1.45;0.63;;;;;;;24.41;42.63;101766.34;4180602;28;20206;-64
2022/04/15 08:34:57;;;;;;;0.90;0.82;;;;;;;24.41;42.84;101771.13;4181278;28;20110;-65
2022/04/15 08:37:01;;;;;;;0.60;0.60;;;;;;;24.39;42.51;101765.81;4181305;28;20033;-64
2022/04/15 08:39:12;;;;;;;1.02;0.70;;;;;;;24.39;42.44;101777.00;4187128;28;20109;-64
2022/04/15 08:41:16;;;;;;;2.50;0.55;;;;;;;24.40;42.31;101777.84;4197572;28;20037;-63
2022/04/15 08:43:18;;;;;;;0.82;0.60;;;;;;;24.41;42.32;101782.31;4198209;28;20048;-63
2022/04/15 08:45:21;;;;;;;1.13;0.60;;;;;;;24.33;42.42;101773.38;4197701;28;20037;-63
2022/04/15 08:47:28;;;;;;;1.00;0.82;;;;;;;24.37;42.67;101786.78;4197901;28;20048;-63
2022/04/15 08:49:29;;;;;;;0.68;0.60;;;;;;;24.38;42.63;101789.31;4197587;28;20169;-62
2022/04/15 08:51:34;;;;;;;0.70;0.50;;;;;;;24.35;42.74;101789.84;4189033;28;20098;-63
2022/04/15 08:53:36;;;;;;;2.63;0.82;;;;;;;24.38;42.51;101794.09;4180134;28;20033;-62
2022/04/15 08:55:38;;;;;;;0.60;0.60;;;;;;;24.37;42.66;101800.78;4180731;28;20037;-63
2022/04/15 08:57:39;;;;;;;0.55;0.55;;;;;;;24.35;42.39;101807.47;4181171;28;20087;-63
2022/04/15 08:59:40;;;;;;;1.25;0.70;;;;;;;24.34;42.39;101800.22;4164667;28;20065;-63
2022/04/15 09:01:43;;;;;;;1.38;0.70;;;;;;;24.35;42.37;101798.25;4164470;28;20050;-63
2022/04/15 09:03:44;;;;;;;1.00;0.60;;;;;;;24.35;42.50;101796.28;4186138;28;20041;-63
2022/04/15 09:05:51;;;;;;;0.55;0.52;;;;;;;24.30;42.23;101793.50;4196781;28;20037;-63
2022/04/15 09:08:11;;;;;;;0.60;0.60;;;;;;;24.29;42.60;101794.63;4197504;28;20090;-63
2022/04/15 09:10:16;;;;;;;0.47;0.40;;;;;;;24.34;42.73;101788.19;4197084;28;20048;-63
2022/04/15 09:12:19;;;;;;;0.60;0.60;;;;;;;24.33;42.32;101792.94;4197252;28;20036;-63
2022/04/15 09:14:24;;;;;;;0.52;0.52;;;;;;;24.33;42.51;101797.69;4197323;28;20040;-63
2022/04/15 09:16:28;;;;;;;0.60;0.60;;;;;;;24.24;42.50;101785.41;4197409;28;20464;-63
2022/04/15 09:18:36;;;;;;;0.80;0.57;;;;;;;24.31;42.62;101800.75;4197873;28;20429;-62
2022/04/15 09:20:41;;;;;;;0.95;0.70;;;;;;;24.26;42.65;101792.38;4196425;28;20041;-62
2022/04/15 09:22:43;;;;;;;0.55;0.50;;;;;;;24.16;42.36;101780.41;4181178;28;20036;-62
2022/04/15 09:24:46;;;;;;;0.57;0.57;;;;;;;24.32;42.41;101799.63;4180435;28;20083;-65
2022/04/15 09:26:48;;;;;;;0.60;0.60;;;;;;;24.23;42.56;101792.09;4180432;28;20110;-64
2022/04/15 09:28:50;;;;;;;1.02;0.60;;;;;;;24.31;42.62;101814.75;4180259;28;20111;-64
2022/04/15 09:30:51;;;;;;;1.08;0.60;;;;;;;24.30;42.27;101818.69;4169092;28;20091;-64
2022/04/15 09:33:01;;;;;;;0.82;0.60;;;;;;;24.26;42.47;101808.34;4167711;28;20439;-64